• Join FlightAware (Why Join?)
  • Login
  • US Flag 
02:01AM EDT


 

Airport Tracker/Info


-or-


 

Live Flight TrackerFlight Track Log ✈ KFA273 ✈ 03-May-2013 ✈ CYWG - CYEG

Flight Track Log - Related Links

Times and Time Zones

All times are in EDT time to prevent confusion due to time zone crossing. See the KFA273 flight status page for this flight to view local times or setup timezone preferences in your user account.

Time Position Orientation Groundspeed Altitude Reporting Facility
EDT Latitude Longitude Course Direction KTS MPH feet Rate Location/Type
04:25AM 49.9333 -97.3500 291° West 230 265 3,800  Level Winnipeg Center
04:26AM 49.9500 -97.4667 283° West 270 311 6,400 2,940 Climbing Winnipeg Center
04:27AM 49.9667 -97.5833 283° West 290 334 9,700 2,640 Climbing Winnipeg Center
04:28AM 50.0000 -97.7167 291° West 330 380 11,700 2,400 Climbing Winnipeg Center
04:29AM 50.0333 -97.8500 291° West 360 414 14,500 2,520 Climbing Winnipeg Center
04:30AM 50.1664 -98.1259 294° West  Level FlightAware Approximate
04:30AM 50.0667 -98.0000 289° West 390 449 16,800  Level Winnipeg Center
04:31AM 50.0833 -98.1667 279° West 400 460 18,000 1,740 Climbing Winnipeg Center
04:32AM 50.1333 -98.3500 293° West 420 483 20,300 1,980 Climbing Winnipeg Center
04:33AM 50.1667 -98.5333 286° West 440 506 22,000 1,800 Climbing Winnipeg Center
04:34AM 50.2000 -98.7167 286° West 440 506 23,900 1,620 Climbing Winnipeg Center
04:35AM 50.2500 -98.9000 293° West 460 529 25,300 1,260 Climbing Winnipeg Center
04:36AM 50.2833 -99.1167 284° West 470 541 26,500 1,440 Climbing Winnipeg Center
04:37AM 50.3167 -99.3167 285° West 480 552 28,200 1,740 Climbing Winnipeg Center
04:38AM 50.3667 -99.5167 291° West 480 552 30,000 1,560 Climbing Winnipeg Center
04:39AM 50.4000 -99.7000 286° West 470 541 31,400 900 Climbing Winnipeg Center
04:40AM 50.4333 -99.9000 285° West 480 552 31,900 300 Climbing Winnipeg Center
04:41AM 50.4667 -100.1167 284° West 480 552 32,000  Climbing Winnipeg Center
04:42AM 50.5500 -100.2833 308° West 470 541 32,000  Level Winnipeg Center
04:43AM 50.6333 -100.4500 308° West 470 541 32,000  Level Winnipeg Center
04:44AM 50.6667 -100.6333 286° West 470 541 32,000  Level Winnipeg Center
04:45AM 50.7333 -100.8333 298° West 460 529 32,100  Climbing Winnipeg Center
04:46AM 50.8000 -100.9833 305° West 460 529 32,000 -60 Descending Winnipeg Center
04:47AM 50.8333 -101.1833 285° West 460 529 32,000  Level Winnipeg Center
04:48AM 50.9167 -101.3500 308° West 460 529 32,000  Level Winnipeg Center
04:49AM 50.9667 -101.5333 293° West 450 518 32,000  Level Winnipeg Center
04:50AM 51.0167 -101.7333 292° West 450 518 32,000  Level Winnipeg Center
04:51AM 51.0833 -101.9000 303° West 450 518 32,000  Level Winnipeg Center
04:52AM 51.1333 -102.0833 294° West 450 518 32,000  Level Winnipeg Center
04:53AM 51.1833 -102.2500 296° West 450 518 32,000  Level Winnipeg Center
04:54AM 51.2333 -102.4167 296° West 450 518 32,000  Level Winnipeg Center
04:55AM 51.2833 -102.6167 292° West 450 518 32,100  Climbing Winnipeg Center
04:56AM 51.3167 -102.8000 286° West 440 506 32,000 -60 Descending Winnipeg Center
04:57AM 51.3667 -103.0000 292° West 440 506 32,000  Level Winnipeg Center
04:58AM 51.4000 -103.1667 288° West 440 506 32,000  Level Winnipeg Center
04:59AM 51.4667 -103.3667 298° West 440 506 32,000  Level Winnipeg Center
05:00AM 51.4833 -103.5333 279° West 430 495 32,000  Level Winnipeg Center
05:01AM 51.5333 -103.7167 294° West 430 495 32,000  Level Winnipeg Center
05:02AM 51.5833 -103.9167 292° West 430 495 32,000  Level Winnipeg Center
05:03AM 51.6167 -104.0833 288° West 430 495 32,000  Level Winnipeg Center
05:04AM 51.6667 -104.2833 292° West 430 495 32,000  Level Winnipeg Center
05:05AM 51.7000 -104.4500 288° West 430 495 32,000  Level Winnipeg Center
05:06AM 51.7333 -104.6500 285° West 430 495 32,000  Level Winnipeg Center
05:07AM 51.7833 -104.8167 296° West 430 495 32,000  Level Winnipeg Center
05:08AM 51.8167 -104.9833 288° West 420 483 32,000  Level Winnipeg Center
05:09AM 51.8500 -105.1667 286° West 420 483 32,000  Level Winnipeg Center
05:10AM 51.8833 -105.3667 285° West 420 483 32,000  Level Winnipeg Center
05:11AM 51.9333 -105.5333 296° West 420 483 32,000  Level Winnipeg Center
05:12AM 51.9667 -105.7333 285° West 420 483 32,000  Level Winnipeg Center
05:13AM 52.0000 -105.9000 288° West 420 483 32,000  Level Winnipeg Center
05:14AM 52.0333 -106.0667 288° West 420 483 32,000  Level Winnipeg Center
05:15AM 52.0833 -106.2500 294° West 420 483 32,000  Level Winnipeg Center
05:16AM 52.1000 -106.4167 279° West 420 483 32,000  Level Winnipeg Center
05:17AM 52.1333 -106.5833 288° West 420 483 32,000  Level Winnipeg Center
05:18AM 52.1667 -106.7833 285° West 410 472 32,000  Level Winnipeg Center
05:19AM 52.2000 -106.9500 288° West 410 472 32,000  Level Winnipeg Center
05:20AM 52.2333 -107.1500 285° West 410 472 32,000  Level Winnipeg Center
05:21AM 52.2667 -107.3333 287° West 410 472 32,000  Level Winnipeg Center
05:22AM 52.2833 -107.5333 278° West 410 472 32,000  Level Winnipeg Center
05:23AM 52.3167 -107.7000 288° West 410 472 32,000  Level Winnipeg Center
05:24AM 52.3500 -107.8833 287° West 410 472 32,000  Level Winnipeg Center
05:25AM 52.3833 -108.0500 288° West 410 472 32,000  Level Winnipeg Center
05:26AM 52.4000 -108.2167 279° West 410 472 32,000  Level Winnipeg Center
05:27AM 52.4333 -108.4167 285° West 410 472 32,000  Level Winnipeg Center
05:28AM 52.4667 -108.6000 287° West 410 472 32,000  Level Winnipeg Center
05:29AM 52.5000 -108.8000 285° West 410 472 32,000  Level Winnipeg Center
05:30AM 52.5167 -108.9667 279° West 410 472 32,000  Level Winnipeg Center
05:31AM 52.5500 -109.1500 287° West 410 472 32,000  Level Winnipeg Center
05:32AM 52.5833 -109.3167 288° West 410 472 32,000  Level Winnipeg Center
05:33AM 52.6167 -109.5333 284° West 410 472 32,000  Level Winnipeg Center
05:34AM 52.6333 -109.7000 279° West 410 472 32,000  Level Winnipeg Center
05:35AM 52.6667 -109.8833 287° West 410 472 32,000  Level Winnipeg Center
05:36AM 52.6833 -110.0500 279° West 410 472 32,000  Level Winnipeg Center
05:37AM 52.7167 -110.2500 285° West 410 472 32,000  Level Winnipeg Center
05:38AM 52.7500 -110.4333 287° West 410 472 32,000  Level Winnipeg Center
05:39AM 52.7667 -110.6333 278° West 410 472 32,000  Level Winnipeg Center
05:40AM 52.7833 -110.8167 279° West 410 472 32,000  Level Winnipeg Center
05:41AM 52.8167 -110.9833 288° West 410 472 32,000  Level Winnipeg Center
05:42AM 52.8500 -111.1667 287° West 410 472 32,000  Level Winnipeg Center
05:43AM 52.8667 -111.3333 279° West 410 472 32,000  Level Winnipeg Center
05:44AM 52.8833 -111.5500 277° West 410 472 32,000 -720 Level Winnipeg Center
05:45AM 52.9167 -111.7333 287° West 410 472 30,600 -2,100 Descending Winnipeg Center
05:46AM 52.9500 -111.9000 288° West 410 472 27,800 -3,180 Descending Winnipeg Center
05:47AM 52.9667 -112.0833 279° West 390 449 24,300 -2,700 Descending Winnipeg Center
05:48AM 52.9833 -112.2500 279° West 390 449 22,500 -2,280 Descending Winnipeg Center
05:49AM 53.0167 -112.4167 288° West 380 437 19,800 -2,280 Descending Winnipeg Center
05:50AM 53.0500 -112.5833 288° West 370 426 18,000 -2,220 Descending Winnipeg Center
05:51AM 53.0667 -112.7500 280° West 360 414 15,400 -2,700 Descending Winnipeg Center
05:52AM 53.1000 -112.9000 290° West 350 403 12,700 -2,460 Descending Winnipeg Center
05:53AM 53.1333 -113.0500 290° West 340 391 10,500 -2,400 Descending Winnipeg Center
05:54AM 53.1500 -113.1500 286° West 270 311 7,700 -2,040 Descending Edmonton Center
05:55AM 53.1333 -113.2333 252° West 240 276 6,300 -1,200 Descending Edmonton Center
05:56AM 53.1167 -113.3500 257° West 190 219 5,300 -840 Descending Edmonton Center
05:57AM 53.1500 -113.3833 329° Northwest 140 161 4,700 -300 Descending Edmonton Center
05:58AM 53.1667 -113.4500 293° West 130 150 4,700 -300 Level Edmonton Center
05:59AM 53.2000 -113.4833 329° Northwest 130 150 4,200 -600 Descending Edmonton Center
06:00AM 53.2167 -113.5167 310° West 120 138 3,500 -660 Descending Edmonton Center
06:01AM 53.2500 -113.5667 318° Northwest 120 138 2,900 -600 Descending Edmonton Center
06:02AM 53.2667 -113.6000 310° West 140 161 2,400 -540 Descending Edmonton Center